createdAt,value
2023-03-22T00:00:46.298Z,5.57
2023-03-22T00:03:21.822Z,5.80
2023-03-22T00:06:13.059Z,5.60
2023-03-22T00:09:05.084Z,4.70
2023-03-22T00:11:41.901Z,5.53
2023-03-22T00:14:16.235Z,5.63
2023-03-22T00:16:50.449Z,5.40
2023-03-22T00:19:50.201Z,5.50
2023-03-22T00:22:22.446Z,5.10
2023-03-22T00:24:59.306Z,6.10
2023-03-22T00:27:37.221Z,5.60
2023-03-22T00:30:10.366Z,5.93
2023-03-22T00:32:40.572Z,5.60
2023-03-22T00:35:10.757Z,6.13
2023-03-22T00:37:41.211Z,5.60
2023-03-22T00:40:13.904Z,6.07
2023-03-22T00:42:46.755Z,6.67
2023-03-22T00:45:15.659Z,5.35
2023-03-22T00:47:44.777Z,6.07
2023-03-22T00:50:25.691Z,5.90
2023-03-22T00:53:04.811Z,5.97
2023-03-22T00:55:39.694Z,5.20
2023-03-22T00:58:11.815Z,6.10
2023-03-22T01:00:50.255Z,6.32
2023-03-22T01:06:31.325Z,5.40
2023-03-22T01:09:02.195Z,5.73
2023-03-22T01:11:39.352Z,5.63
2023-03-22T01:14:12.951Z,5.43
2023-03-22T01:17:01.230Z,5.93
2023-03-22T01:19:35.765Z,6.10
2023-03-22T01:22:04.806Z,6.77
2023-03-22T01:24:49.161Z,6.50
2023-03-22T01:27:21.059Z,6.47
2023-03-22T01:29:58.141Z,6.75
2023-03-22T01:32:35.001Z,6.72
2023-03-22T01:35:04.125Z,6.73
2023-03-22T01:37:38.577Z,6.97
2023-03-22T01:40:08.587Z,6.60
2023-03-22T01:42:46.775Z,7.40
2023-03-22T01:45:45.334Z,6.78
2023-03-22T01:48:35.755Z,6.53
2023-03-22T01:51:09.004Z,6.75
2023-03-22T01:53:51.514Z,7.35
2023-03-22T01:56:25.379Z,6.20
2023-03-22T01:58:57.081Z,7.30
2023-03-22T02:01:34.381Z,6.23
2023-03-22T02:04:12.578Z,6.45
2023-03-22T02:06:46.891Z,6.18
2023-03-22T02:09:23.278Z,6.15
2023-03-22T02:12:07.075Z,6.28
2023-03-22T02:14:52.118Z,6.30
2023-03-22T02:18:22.811Z,6.03
2023-03-22T02:21:39.467Z,6.60
2023-03-22T02:25:03.061Z,6.50
2023-03-22T02:27:55.036Z,5.78
2023-03-22T02:30:54.771Z,6.67
2023-03-22T02:34:02.903Z,6.40
2023-03-22T02:36:52.272Z,6.45
2023-03-22T02:39:35.442Z,6.80
2023-03-22T02:42:45.200Z,6.53
2023-03-22T02:45:18.900Z,5.70
2023-03-22T02:47:56.432Z,6.50
2023-03-22T02:50:33.183Z,6.10
2023-03-22T02:53:08.565Z,6.57
2023-03-22T02:55:59.596Z,5.70
2023-03-22T02:58:48.239Z,6.07
2023-03-22T03:01:31.429Z,5.90
2023-03-22T03:04:31.166Z,5.97
2023-03-22T03:07:33.142Z,5.65
2023-03-22T03:10:05.256Z,6.05
2023-03-22T03:12:37.493Z,5.67
2023-03-22T03:15:34.696Z,5.88
2023-03-22T03:18:22.260Z,5.80
2023-03-22T03:21:02.392Z,6.53
2023-03-22T03:23:43.034Z,6.38
2023-03-22T03:26:54.179Z,6.00
2023-03-22T03:29:38.514Z,5.90
2023-03-22T03:32:13.545Z,6.25
2023-03-22T03:34:50.610Z,6.00
2023-03-22T03:37:32.763Z,6.07
2023-03-22T03:40:27.794Z,6.30
2023-03-22T03:43:05.079Z,5.88
2023-03-22T03:49:07.372Z,6.60
2023-03-22T03:51:48.266Z,6.32
2023-03-22T03:54:50.155Z,7.27
2023-03-22T03:57:36.905Z,7.07
2023-03-22T04:00:06.536Z,6.10
2023-03-22T04:03:31.241Z,6.10
2023-03-22T04:06:20.521Z,6.93
2023-03-22T04:08:56.725Z,6.20
2023-03-22T04:11:34.618Z,6.75
2023-03-22T04:14:05.420Z,7.28
2023-03-22T04:16:59.228Z,6.55
2023-03-22T04:19:39.362Z,7.28
2023-03-22T04:22:33.644Z,7.07
2023-03-22T04:25:12.057Z,6.55
2023-03-22T04:27:56.096Z,6.60
2023-03-22T04:30:29.501Z,6.80
2023-03-22T04:33:36.927Z,7.25
2023-03-22T04:36:33.434Z,6.77
2023-03-22T04:39:34.894Z,7.00
2023-03-22T04:42:38.141Z,8.13
2023-03-22T04:45:29.250Z,8.75
2023-03-22T04:48:02.142Z,7.00
2023-03-22T04:50:35.620Z,7.00
2023-03-22T04:53:07.025Z,6.63
2023-03-22T04:55:42.149Z,7.38
2023-03-22T04:58:10.861Z,7.30
2023-03-22T05:00:58.694Z,6.80
2023-03-22T05:04:06.285Z,6.37
2023-03-22T05:06:40.073Z,6.78
2023-03-22T05:09:31.165Z,6.68
2023-03-22T05:12:06.579Z,6.68
2023-03-22T05:14:49.714Z,6.03
2023-03-22T05:17:24.085Z,6.67
2023-03-22T05:19:55.990Z,6.22
2023-03-22T05:22:35.605Z,6.90
2023-03-22T05:25:06.291Z,6.57
2023-03-22T05:27:41.046Z,6.68
2023-03-22T05:30:35.154Z,6.73
2023-03-22T05:33:12.276Z,6.63
2023-03-22T05:35:47.018Z,5.78
2023-03-22T05:38:16.624Z,6.22
2023-03-22T05:40:53.453Z,6.30
2023-03-22T05:43:34.379Z,5.60
2023-03-22T05:46:06.303Z,5.97
2023-03-22T05:49:05.840Z,6.25
2023-03-22T05:51:51.415Z,5.53
2023-03-22T05:54:37.603Z,6.03
2023-03-22T05:57:07.025Z,5.80
2023-03-22T05:59:36.957Z,6.43
2023-03-22T06:02:34.173Z,5.10
2023-03-22T06:05:06.685Z,5.60
2023-03-22T06:07:55.052Z,5.05
2023-03-22T06:10:32.012Z,5.30
2023-03-22T06:13:13.541Z,5.13
2023-03-22T06:15:48.708Z,5.15
2023-03-22T06:18:37.575Z,6.45
2023-03-22T06:21:11.804Z,6.00
2023-03-22T06:23:49.482Z,4.93
2023-03-22T06:26:21.245Z,5.82
2023-03-22T06:28:55.596Z,5.82
2023-03-22T06:31:24.850Z,6.47
2023-03-22T06:33:58.080Z,5.18
2023-03-22T06:36:48.163Z,5.37
2023-03-22T06:39:43.567Z,4.90
2023-03-22T06:42:13.107Z,4.88
2023-03-22T06:44:47.260Z,4.57
2023-03-22T06:50:18.161Z,4.80
2023-03-22T06:53:05.480Z,4.60
2023-03-22T06:55:38.270Z,4.95
2023-03-22T06:58:14.937Z,5.38
2023-03-22T07:00:49.709Z,5.20
2023-03-22T07:03:34.323Z,5.37
2023-03-22T07:06:09.556Z,5.38
2023-03-22T07:08:42.296Z,5.03
2023-03-22T07:11:20.828Z,4.53
2023-03-22T07:13:59.721Z,4.63
2023-03-22T07:16:36.802Z,5.13
2023-03-22T07:19:07.738Z,4.22
2023-03-22T07:21:38.078Z,4.63
2023-03-22T07:24:12.079Z,5.85
2023-03-22T07:26:40.868Z,4.65
2023-03-22T07:29:11.100Z,4.80
2023-03-22T07:31:43.325Z,4.82
2023-03-22T07:34:17.741Z,4.97
2023-03-22T07:37:12.245Z,4.47
2023-03-22T07:39:44.661Z,5.05
2023-03-22T07:42:14.895Z,4.40
2023-03-22T07:44:54.378Z,4.72
2023-03-22T07:47:41.067Z,4.35
2023-03-22T07:50:37.403Z,4.38
2023-03-22T07:53:50.070Z,4.75
2023-03-22T07:56:40.434Z,4.30
2023-03-22T07:59:12.835Z,3.75
2023-03-22T08:02:05.645Z,4.43
2023-03-22T08:05:04.483Z,4.65
2023-03-22T08:07:39.169Z,3.95
2023-03-22T08:10:28.183Z,3.87
2023-03-22T08:13:06.863Z,3.95
2023-03-22T08:16:05.683Z,4.07
2023-03-22T08:18:43.646Z,3.60
2023-03-22T08:22:07.241Z,4.22
2023-03-22T08:32:48.528Z,4.07
2023-03-22T08:36:36.816Z,3.90
2023-03-22T08:45:41.045Z,3.75
2023-03-22T08:52:02.621Z,3.60
2023-03-22T09:02:06.480Z,3.65
2023-03-22T09:04:41.174Z,3.95
2023-03-22T09:14:37.091Z,3.13
2023-03-22T09:17:07.165Z,3.20
2023-03-22T09:23:39.927Z,2.70
2023-03-22T09:26:34.700Z,2.47
2023-03-22T09:28:41.369Z,2.55
2023-03-22T09:29:05.884Z,2.50
2023-03-22T09:32:07.274Z,1.85
2023-03-22T09:39:05.028Z,1.30
2023-03-22T09:42:04.723Z,1.17
2023-03-22T09:45:05.229Z,1.00
2023-03-22T09:48:36.629Z,1.92
2023-03-22T09:55:05.592Z,1.52
2023-03-22T09:59:13.633Z,1.60
2023-03-22T10:00:43.472Z,1.47
2023-03-22T10:03:21.820Z,1.70
2023-03-22T10:05:54.684Z,1.70
2023-03-22T10:08:34.035Z,1.70
2023-03-22T10:11:02.473Z,1.50
2023-03-22T10:13:37.769Z,1.63
2023-03-22T10:16:08.541Z,1.52
2023-03-22T10:18:38.929Z,1.50
2023-03-22T10:21:09.284Z,2.03
2023-03-22T10:23:44.168Z,1.60
2023-03-22T10:26:20.037Z,1.50
2023-03-22T10:28:56.197Z,1.75
2023-03-22T10:31:26.644Z,2.90
2023-03-22T10:33:59.693Z,1.70
2023-03-22T10:36:34.701Z,1.70
2023-03-22T10:39:11.410Z,1.80
2023-03-22T10:41:40.484Z,1.77
2023-03-22T10:44:09.421Z,1.65
2023-03-22T10:46:42.720Z,1.63
2023-03-22T10:49:21.905Z,1.80
2023-03-22T10:52:02.042Z,1.63
2023-03-22T10:54:32.101Z,1.58
2023-03-22T10:57:00.647Z,1.55
2023-03-22T10:59:48.122Z,1.80
2023-03-22T11:02:27.742Z,2.10
2023-03-22T11:04:58.801Z,1.80
2023-03-22T11:07:35.457Z,1.50
2023-03-22T11:10:30.301Z,1.33
2023-03-22T11:13:29.053Z,1.50
2023-03-22T11:16:05.549Z,1.63
2023-03-22T11:19:17.559Z,1.43
2023-03-22T11:22:11.952Z,1.27
2023-03-22T11:24:44.416Z,1.40
2023-03-22T11:27:41.065Z,1.30
2023-03-22T11:30:20.198Z,1.27
2023-03-22T11:32:48.996Z,1.30
2023-03-22T11:35:19.648Z,1.40
2023-03-22T11:37:49.591Z,1.67
2023-03-22T11:40:19.900Z,1.52
2023-03-22T11:42:53.430Z,1.25
2023-03-22T11:45:26.581Z,1.27
2023-03-22T11:47:56.239Z,1.60
2023-03-22T11:50:29.382Z,1.83
2023-03-22T11:52:57.971Z,1.40
2023-03-22T11:55:27.072Z,1.40
2023-03-22T11:57:57.908Z,1.30
2023-03-22T12:00:32.666Z,1.30
2023-03-22T12:03:13.842Z,1.30
2023-03-22T12:05:45.400Z,1.20
2023-03-22T12:08:22.796Z,1.30
2023-03-22T12:11:04.281Z,1.00
2023-03-22T12:13:54.132Z,1.20
2023-03-22T12:16:31.405Z,1.60
2023-03-22T12:19:14.083Z,0.90
2023-03-22T12:21:45.997Z,1.85
2023-03-22T12:24:29.228Z,1.40
2023-03-22T12:27:02.204Z,1.33
2023-03-22T12:29:40.972Z,1.20
2023-03-22T12:32:13.768Z,1.00
2023-03-22T12:34:47.411Z,0.90
2023-03-22T12:37:22.581Z,1.10
2023-03-22T12:40:06.032Z,0.93
2023-03-22T12:42:49.755Z,1.48
2023-03-22T12:45:28.125Z,1.40
2023-03-22T12:48:14.895Z,1.10
2023-03-22T12:50:49.602Z,1.17
2023-03-22T12:53:27.821Z,1.50
2023-03-22T12:56:16.397Z,1.40
2023-03-22T12:58:53.040Z,1.10
2023-03-22T13:01:46.039Z,1.60
2023-03-22T13:04:49.511Z,1.33
2023-03-22T13:07:34.646Z,1.15
2023-03-22T13:10:54.552Z,1.58
2023-03-22T13:14:02.908Z,1.10
2023-03-22T13:16:53.977Z,1.20
2023-03-22T13:19:42.128Z,1.33
2023-03-22T13:22:28.083Z,1.30
2023-03-22T13:25:33.251Z,1.40
2023-03-22T13:28:24.735Z,1.40
2023-03-22T13:30:58.300Z,1.60
2023-03-22T13:33:29.215Z,1.40
2023-03-22T13:36:04.781Z,1.58
2023-03-22T13:38:50.516Z,1.35
2023-03-22T13:41:26.229Z,1.35
2023-03-22T13:44:00.779Z,1.70
2023-03-22T13:47:05.177Z,1.60
2023-03-22T13:49:51.240Z,1.92
2023-03-22T13:52:38.538Z,2.25
2023-03-22T13:55:35.850Z,1.50
2023-03-22T13:58:06.195Z,1.80
2023-03-22T14:00:51.285Z,1.87
2023-03-22T14:03:29.167Z,1.60
2023-03-22T14:06:09.534Z,1.40
2023-03-22T14:08:39.005Z,1.58
2023-03-22T14:11:21.908Z,1.30
2023-03-22T14:13:53.154Z,3.10
2023-03-22T14:16:30.440Z,2.20
2023-03-22T14:19:03.243Z,1.60
2023-03-22T14:21:37.030Z,1.45
